Time;durP1;ratioP1;P1;durP2;ratioP2;P2;SDS_P1;SDS_P2;PMS_P1;PMS_P2;Temp;Humidity;BMP_temperature;BMP_pressure;BME280_temperature;BME280_humidity;BME280_pressure;Samples;Min_cycle;Max_cycle;Signal;HPM_P1;HPM_P2
2022/02/26 00:00:18;;;;;;;13.55;6.78;;;;;;;-1.69;61.02;99955.81;4994418;28;20041;-81
2022/02/26 00:02:44;;;;;;;14.07;6.88;;;;;;;-1.74;60.88;99939.41;5001694;28;20124;-81
2022/02/26 00:05:10;;;;;;;13.30;6.68;;;;;;;-1.60;61.00;99971.50;5018157;28;20057;-82
2022/02/26 00:07:37;;;;;;;17.35;6.65;;;;;;;-1.62;60.73;99949.28;5017911;28;20160;-82
2022/02/26 00:10:04;;;;;;;13.98;6.70;;;;;;;-1.67;61.08;99937.19;5011034;28;20418;-80
2022/02/26 00:12:31;;;;;;;14.02;6.72;;;;;;;-1.33;61.13;99977.72;5028219;28;20037;-81
2022/02/26 00:14:58;;;;;;;13.20;6.38;;;;;;;-1.78;61.00;99905.25;5029099;28;20530;-81
2022/02/26 00:17:24;;;;;;;13.32;6.68;;;;;;;-1.48;61.21;99971.16;5028513;28;20517;-79
2022/02/26 00:20:41;;;;;;;12.13;6.57;;;;;;;-1.89;61.51;99894.59;5028520;28;20475;-81
2022/02/26 00:23:22;;;;;;;14.02;6.53;;;;;;;-1.44;61.08;99956.84;4979473;28;20049;-81
2022/02/26 00:25:48;;;;;;;12.60;6.35;;;;;;;-1.25;60.91;99991.66;5010904;28;20045;-81
2022/02/26 00:28:14;;;;;;;14.18;7.32;;;;;;;-1.42;61.36;99963.75;5027232;28;20136;-83
2022/02/26 00:30:40;;;;;;;12.63;6.53;;;;;;;-1.26;60.81;100000.13;4996114;28;20135;-82
2022/02/26 00:33:07;;;;;;;14.52;6.22;;;;;;;-1.58;61.28;99939.25;5013877;28;20033;-80
2022/02/26 00:35:33;;;;;;;12.90;7.10;;;;;;;-1.30;61.34;99994.03;5030896;28;20045;-82
2022/02/26 00:38:00;;;;;;;13.52;6.10;;;;;;;-1.50;61.35;99954.03;4994324;28;20052;-80
2022/02/26 00:40:28;;;;;;;14.75;6.95;;;;;;;-1.56;61.17;99945.31;5010929;28;20041;-81
2022/02/26 00:42:54;;;;;;;14.70;6.80;;;;;;;-1.55;61.75;99938.53;5028473;28;20041;-81
2022/02/26 00:45:20;;;;;;;13.63;6.85;;;;;;;-1.23;61.84;99984.94;5010095;28;20041;-80
2022/02/26 00:47:46;;;;;;;15.65;7.60;;;;;;;-1.20;61.57;99974.88;5028922;28;20053;-80
2022/02/26 00:50:12;;;;;;;13.57;6.90;;;;;;;-1.14;61.04;99979.34;5028986;28;20037;-82
2022/02/26 00:52:38;;;;;;;15.88;7.05;;;;;;;-1.32;61.23;99933.50;5005570;28;20041;-80
2022/02/26 00:55:05;;;;;;;12.85;6.25;;;;;;;-1.06;61.90;99973.75;4989905;28;20418;-82
2022/02/26 00:57:32;;;;;;;13.90;6.32;;;;;;;-1.38;61.40;99909.47;5029667;28;20454;-81
2022/02/26 00:59:58;;;;;;;12.50;6.00;;;;;;;-1.27;61.66;99920.13;5029749;28;20143;-82
2022/02/26 01:02:24;;;;;;;12.63;6.25;;;;;;;-1.07;61.48;99930.25;5020751;28;20069;-81
2022/02/26 01:04:50;;;;;;;13.32;6.80;;;;;;;-0.92;61.14;99937.69;5029344;28;20058;-81
2022/02/26 01:07:16;;;;;;;13.57;6.50;;;;;;;-0.78;61.72;99961.22;4987819;28;20041;-81
2022/02/26 01:09:43;;;;;;;12.75;5.93;;;;;;;-0.92;61.43;99915.53;5027634;28;20424;-81
2022/02/26 01:12:10;;;;;;;12.60;6.50;;;;;;;-0.51;61.02;99978.44;5027748;28;20718;-80
2022/02/26 01:14:38;;;;;;;12.07;6.60;;;;;;;-0.75;60.67;99925.53;5029577;28;20049;-79
2022/02/26 01:17:06;;;;;;;14.70;7.03;;;;;;;-0.37;60.84;99984.06;5010513;28;20067;-80
2022/02/26 01:19:32;;;;;;;13.60;6.95;;;;;;;-0.52;60.84;99946.00;5010543;28;20152;-80
2022/02/26 01:21:58;;;;;;;16.15;7.82;;;;;;;-0.24;60.94;99986.31;5017169;28;20064;-81
2022/02/26 01:24:24;;;;;;;15.63;6.15;;;;;;;-0.33;61.20;99947.59;5034822;28;20422;-80
2022/02/26 01:27:29;;;;;;;12.88;6.90;;;;;;;-0.44;60.50;99913.09;5034167;28;20049;-81
2022/02/26 01:30:04;;;;;;;13.60;7.20;;;;;;;-0.05;60.43;99972.50;5010383;28;20080;-78
2022/02/26 01:32:30;;;;;;;14.27;6.80;;;;;;;-0.35;60.55;99921.97;5033263;28;20502;-80
2022/02/26 01:34:57;;;;;;;14.15;6.30;;;;;;;0.09;60.65;99984.94;5034394;28;20096;-81
2022/02/26 01:37:23;;;;;;;13.77;6.60;;;;;;;-0.26;60.71;99923.09;5033319;28;20076;-80
2022/02/26 01:39:49;;;;;;;13.35;6.35;;;;;;;0.16;60.64;99989.44;5010792;28;20042;-80
2022/02/26 01:42:17;;;;;;;11.40;6.32;;;;;;;-0.28;60.60;99917.06;4994645;28;20367;-82
2022/02/26 01:44:50;;;;;;;12.45;6.47;;;;;;;-0.18;59.82;99937.91;5028960;28;20055;-82
2022/02/26 01:47:17;;;;;;;14.40;5.95;;;;;;;0.22;59.98;99996.50;5020717;28;20037;-81
2022/02/26 01:49:44;;;;;;;15.90;6.53;;;;;;;0.01;60.45;99938.56;4988261;28;20120;-82
2022/02/26 01:52:11;;;;;;;15.45;7.10;;;;;;;0.19;59.90;99952.88;5027712;28;20061;-80
2022/02/26 01:54:39;;;;;;;13.32;6.85;;;;;;;0.11;60.20;99945.78;5011128;28;20041;-80
2022/02/26 01:58:06;;;;;;;11.15;6.50;;;;;;;0.44;60.33;99991.28;5015262;28;20046;-81
2022/02/26 02:00:45;;;;;;;12.75;6.53;;;;;;;0.21;59.80;99951.25;5060869;23;20646;-79
2022/02/26 02:03:20;;;;;;;11.15;6.45;;;;;;;0.42;59.76;99992.97;5054816;28;20090;-79
2022/02/26 02:06:51;;;;;;;15.27;7.07;;;;;;;-0.42;59.54;99843.28;5057822;28;20060;-80
2022/02/26 02:14:06;;;;;;;13.02;6.57;;;;;;;-0.34;59.38;99912.59;4949836;28;20102;-80
2022/02/26 02:16:36;;;;;;;11.05;6.25;;;;;;;0.20;59.80;99991.31;5024882;28;20087;-80
2022/02/26 02:19:10;;;;;;;12.80;6.88;;;;;;;0.18;60.23;99966.47;4991710;28;20034;-79
2022/02/26 02:21:37;;;;;;;12.60;6.80;;;;;;;0.40;59.61;99997.16;5024267;28;20554;-80
2022/02/26 02:24:04;;;;;;;14.00;6.90;;;;;;;0.21;59.41;99967.47;5077139;28;20022;-80
2022/02/26 02:26:32;;;;;;;13.68;6.25;;;;;;;-0.02;58.95;99918.88;5090311;28;20040;-81
2022/02/26 02:29:00;;;;;;;14.05;7.00;;;;;;;0.49;59.85;100004.28;5060075;28;20072;-79
2022/02/26 02:31:27;;;;;;;11.48;6.38;;;;;;;0.35;59.23;99979.88;5056361;28;20044;-80
2022/02/26 02:33:53;;;;;;;11.23;6.57;;;;;;;0.08;59.59;99942.25;5073648;28;20036;-81
2022/02/26 02:36:19;;;;;;;12.60;6.40;;;;;;;0.55;59.74;100012.16;5075411;28;20052;-80
2022/02/26 02:38:45;;;;;;;12.82;6.85;;;;;;;0.49;59.25;99988.91;5058104;28;20036;-80
2022/02/26 02:41:11;;;;;;;14.57;7.20;;;;;;;0.05;59.28;99914.84;5038847;28;20508;-80
2022/02/26 02:43:39;;;;;;;12.77;6.85;;;;;;;0.52;59.24;99989.03;5044345;28;20044;-79
2022/02/26 02:46:06;;;;;;;15.27;7.15;;;;;;;0.34;59.01;99967.88;5056841;28;20082;-80
2022/02/26 02:48:32;;;;;;;13.60;6.68;;;;;;;0.50;59.47;99977.88;5074862;28;20083;-80
2022/02/26 02:50:58;;;;;;;12.13;6.32;;;;;;;0.40;59.31;99969.00;5049846;28;20105;-80
2022/02/26 02:53:24;;;;;;;15.05;7.20;;;;;;;0.41;59.55;99962.16;5029968;28;20036;-80
2022/02/26 02:55:52;;;;;;;11.57;6.78;;;;;;;0.70;58.75;100000.72;5056726;28;20037;-78
2022/02/26 02:58:26;;;;;;;12.63;6.53;;;;;;;0.67;59.02;99991.22;5041646;28;20531;-79
2022/02/26 03:00:53;;;;;;;13.40;6.38;;;;;;;0.80;59.02;100007.03;5038405;28;20136;-79
2022/02/26 03:03:19;;;;;;;14.55;6.57;;;;;;;0.73;58.66;99990.59;5035832;28;20686;-79
2022/02/26 03:05:47;;;;;;;13.55;6.65;;;;;;;0.71;59.30;100003.31;5058171;28;20040;-78
2022/02/26 03:08:13;;;;;;;17.42;6.97;;;;;;;0.74;59.00;100010.25;5077892;28;20051;-78
2022/02/26 03:10:39;;;;;;;17.73;6.85;;;;;;;0.44;59.25;99949.47;5062173;28;20493;-79
2022/02/26 03:13:45;;;;;;;;;;;;;;;;;;;;;
2022/02/26 03:16:21;;;;;;;13.77;6.95;;;;;;;0.55;58.36;99985.69;5059427;28;20036;-81
2022/02/26 03:18:50;;;;;;;12.20;6.60;;;;;;;0.22;58.62;99923.13;5064125;28;20047;-81
2022/02/26 03:21:35;;;;;;;11.57;6.63;;;;;;;0.50;58.85;99962.50;5084006;28;20070;-79
2022/02/26 03:24:36;;;;;;;9.93;6.07;;;;;;;0.74;58.41;100002.56;5072012;28;20062;-80
2022/02/26 03:27:02;;;;;;;14.05;6.97;;;;;;;0.87;58.12;100002.16;5053116;28;20036;-81
2022/02/26 03:29:28;;;;;;;14.32;6.47;;;;;;;0.96;58.39;100031.50;5065601;28;20020;-81
2022/02/26 03:31:55;;;;;;;12.00;5.93;;;;;;;0.79;58.22;100007.84;5062533;28;20048;-80
2022/02/26 03:34:22;;;;;;;12.05;6.22;;;;;;;0.92;58.63;100030.50;5096071;28;20056;-80
2022/02/26 03:36:51;;;;;;;13.05;6.95;;;;;;;0.78;57.97;100017.22;5068247;28;20126;-81
2022/02/26 03:39:20;;;;;;;13.77;6.75;;;;;;;0.87;58.16;100022.66;5056795;28;20044;-79
2022/02/26 03:41:46;;;;;;;15.32;6.78;;;;;;;0.79;57.58;100025.78;5048399;28;20068;-80
2022/02/26 03:44:14;;;;;;;14.32;6.28;;;;;;;0.86;58.45;100038.00;5041281;28;20044;-81
2022/02/26 03:46:40;;;;;;;14.55;6.55;;;;;;;0.85;58.42;100052.47;5056605;28;20032;-82
2022/02/26 03:49:07;;;;;;;11.65;6.40;;;;;;;0.56;58.78;100021.59;5015235;28;20528;-81
2022/02/26 03:51:34;;;;;;;15.02;7.07;;;;;;;0.83;58.61;100055.81;5055906;28;20579;-80
2022/02/26 03:54:01;;;;;;;10.93;6.07;;;;;;;0.68;59.08;100017.72;5074194;28;20089;-81
2022/02/26 03:56:28;;;;;;;12.95;6.60;;;;;;;0.79;58.07;100034.31;5071309;28;20389;-81
2022/02/26 03:58:57;;;;;;;14.10;7.20;;;;;;;0.83;57.53;100043.00;5073347;28;20036;-80
2022/02/26 04:01:23;;;;;;;11.05;6.20;;;;;;;0.61;58.32;100026.91;5055389;28;20150;-81
2022/02/26 04:03:50;;;;;;;13.95;6.70;;;;;;;0.79;57.89;100065.06;5072262;28;20045;-80
2022/02/26 04:06:16;;;;;;;14.98;7.32;;;;;;;0.55;58.04;100040.34;5040779;28;20093;-79
2022/02/26 04:08:42;;;;;;;12.68;6.88;;;;;;;0.68;58.34;100053.59;5039120;28;20036;-80
2022/02/26 04:11:08;;;;;;;13.65;6.80;;;;;;;0.75;58.24;100076.06;5054856;28;20040;-81
2022/02/26 04:13:35;;;;;;;11.85;6.47;;;;;;;0.67;58.12;100069.78;5072942;28;20115;-80
2022/02/26 04:16:03;;;;;;;13.45;6.43;;;;;;;0.64;58.29;100069.66;5082959;28;20044;-79
2022/02/26 04:18:29;;;;;;;11.60;6.38;;;;;;;0.78;58.36;100088.09;5052014;28;20598;-80
2022/02/26 04:20:55;;;;;;;12.98;6.90;;;;;;;0.79;57.92;100089.84;5067942;28;20080;-81
2022/02/26 04:23:22;;;;;;;13.93;7.22;;;;;;;0.79;58.43;100074.47;5078118;28;20390;-81
2022/02/26 04:25:49;;;;;;;12.10;6.40;;;;;;;0.86;58.26;100079.84;5073705;28;20051;-80
2022/02/26 04:28:15;;;;;;;10.30;6.25;;;;;;;0.93;57.95;100083.50;5073590;28;20127;-83
2022/02/26 04:30:41;;;;;;;11.10;6.13;;;;;;;0.84;58.56;100081.47;5054808;28;20089;-82
2022/02/26 04:33:10;;;;;;;11.38;6.10;;;;;;;0.68;58.49;100030.53;5073618;28;20036;-81
2022/02/26 04:35:37;;;;;;;12.73;6.60;;;;;;;0.82;58.14;100064.31;5054911;28;20043;-83
2022/02/26 04:38:03;;;;;;;14.30;6.97;;;;;;;0.96;58.08;100080.19;5038502;28;20063;-82
2022/02/26 04:40:30;;;;;;;12.27;6.15;;;;;;;0.93;58.47;100080.06;5070579;28;20068;-80
2022/02/26 04:43:05;;;;;;;15.02;6.65;;;;;;;0.87;57.72;100071.34;5056268;28;20032;-79
2022/02/26 04:45:31;;;;;;;12.30;6.45;;;;;;;0.41;57.66;99993.78;5052324;28;20044;-80
2022/02/26 04:47:57;;;;;;;13.07;6.43;;;;;;;0.89;57.89;100069.72;5053015;28;20098;-79
2022/02/26 04:50:22;;;;;;;13.43;6.53;;;;;;;1.05;58.14;100095.88;5070531;28;20556;-79
2022/02/26 04:52:49;;;;;;;12.57;6.22;;;;;;;1.12;58.25;100100.38;5072199;28;20047;-77
2022/02/26 04:55:15;;;;;;;11.30;6.70;;;;;;;1.22;57.94;100101.56;5054627;28;20463;-80
2022/02/26 04:57:41;;;;;;;13.30;6.80;;;;;;;1.16;58.39;100096.22;5037545;28;20036;-79
2022/02/26 05:00:10;;;;;;;11.90;6.13;;;;;;;1.17;57.49;100101.44;5061689;28;20098;-79
2022/02/26 05:02:37;;;;;;;11.63;6.57;;;;;;;1.12;58.05;100099.50;5052169;28;20036;-79
2022/02/26 05:05:06;;;;;;;12.65;6.53;;;;;;;1.12;58.20;100118.34;5036377;28;20078;-84
2022/02/26 05:07:32;;;;;;;16.42;7.13;;;;;;;1.10;57.84;100126.81;5073280;28;20501;-80
2022/02/26 05:10:00;;;;;;;13.02;6.72;;;;;;;0.86;57.30;100104.63;5037091;28;20505;-79
2022/02/26 05:12:26;;;;;;;13.70;7.57;;;;;;;0.76;58.32;100100.84;5057238;28;20032;-78
2022/02/26 05:14:55;;;;;;;11.68;6.10;;;;;;;0.80;57.97;100124.88;5091384;28;20041;-79
2022/02/26 05:17:21;;;;;;;12.00;6.55;;;;;;;0.82;58.21;100128.38;5060196;28;20044;-79
2022/02/26 05:19:47;;;;;;;12.98;6.32;;;;;;;0.70;58.12;100105.75;5074599;28;20046;-80
2022/02/26 05:22:14;;;;;;;11.80;6.15;;;;;;;0.77;57.92;100130.78;5053288;28;20040;-79
2022/02/26 05:24:40;;;;;;;14.88;7.75;;;;;;;0.82;58.62;100136.06;5072190;28;20440;-79
2022/02/26 05:27:06;;;;;;;10.57;5.75;;;;;;;0.74;58.12;100107.63;5071994;28;20532;-78
2022/02/26 05:29:31;;;;;;;11.10;6.70;;;;;;;1.00;58.28;100135.84;5055383;28;20447;-79
2022/02/26 05:31:58;;;;;;;12.00;6.10;;;;;;;1.24;58.35;100135.84;5054241;28;20048;-79
2022/02/26 05:34:27;;;;;;;13.55;6.07;;;;;;;1.27;57.74;100109.41;5046267;28;20028;-79
2022/02/26 05:36:53;;;;;;;13.30;6.95;;;;;;;1.66;57.78;100142.31;5074023;28;20036;-80
2022/02/26 05:39:19;;;;;;;15.85;6.70;;;;;;;2.35;57.93;100141.06;5053920;28;20090;-80
2022/02/26 05:41:45;;;;;;;13.30;6.82;;;;;;;3.36;57.47;100133.53;5028772;28;20063;-79
2022/02/26 05:44:11;;;;;;;11.43;6.10;;;;;;;4.57;56.29;100145.78;5041534;28;20036;-79
2022/02/26 05:46:38;;;;;;;14.45;6.95;;;;;;;5.43;55.59;100131.09;5058881;28;20063;-78
2022/02/26 05:49:05;;;;;;;12.45;6.47;;;;;;;6.24;54.23;100135.84;5057002;28;20062;-79
2022/02/26 05:51:30;;;;;;;12.05;6.40;;;;;;;6.92;52.63;100134.13;5080913;28;20206;-80
2022/02/26 05:53:56;;;;;;;12.52;7.20;;;;;;;7.58;50.93;100148.56;5081419;28;20063;-77
2022/02/26 05:56:22;;;;;;;9.85;5.85;;;;;;;8.10;50.06;100139.47;5055282;28;20039;-80
2022/02/26 05:58:49;;;;;;;12.05;6.32;;;;;;;8.40;48.95;100133.63;5079503;28;20017;-80
2022/02/26 06:01:15;;;;;;;11.30;6.40;;;;;;;8.95;47.98;100146.84;5084128;28;20093;-81
2022/02/26 06:03:41;;;;;;;11.65;6.40;;;;;;;9.84;47.57;100153.91;5086114;28;20093;-79
2022/02/26 06:06:36;;;;;;;9.75;6.28;;;;;;;10.06;45.52;100083.69;5077473;28;20055;-81
2022/02/26 06:09:26;;;;;;;;;;;;;;;;;;;;;
2022/02/26 06:12:07;;;;;;;10.20;6.53;;;;;;;9.02;44.38;100127.84;5071095;28;20060;-80
2022/02/26 06:14:44;;;;;;;10.70;7.07;;;;;;;8.46;44.53;100173.41;5059980;28;20386;-79
2022/02/26 06:17:11;;;;;;;13.05;6.57;;;;;;;7.62;45.05;100144.28;5059308;28;20088;-81
2022/02/26 06:22:59;;;;;;;13.35;6.53;;;;;;;6.87;45.53;100133.19;5036806;28;20072;-81
2022/02/26 06:25:29;;;;;;;13.52;6.80;;;;;;;6.28;45.52;100123.81;5040742;28;20051;-78
2022/02/26 06:28:17;;;;;;;10.43;6.53;;;;;;;6.23;46.36;100203.00;5073323;28;20509;-80
2022/02/26 06:30:52;;;;;;;11.88;6.03;;;;;;;5.85;46.12;100198.91;5039000;28;20051;-78
2022/02/26 06:33:27;;;;;;;12.93;6.70;;;;;;;5.60;46.75;100207.97;5058604;28;20123;-79
2022/02/26 06:35:53;;;;;;;12.70;7.15;;;;;;;5.34;47.05;100208.34;5039145;28;20507;-79
2022/02/26 06:38:19;;;;;;;11.15;6.93;;;;;;;5.17;47.01;100210.63;5056336;28;20107;-79
2022/02/26 06:40:46;;;;;;;10.48;6.35;;;;;;;4.78;47.57;100166.84;5056588;28;20044;-78
2022/02/26 06:43:15;;;;;;;10.95;6.13;;;;;;;4.67;47.44;100196.72;5041251;28;20032;-78
2022/02/26 06:45:41;;;;;;;13.95;7.80;;;;;;;4.42;48.33;100208.16;5075169;28;20170;-79
2022/02/26 06:48:07;;;;;;;13.63;7.22;;;;;;;4.21;48.01;100233.47;5057573;28;20044;-78
2022/02/26 06:50:48;;;;;;;;;;;;;;;;;;;;;
2022/02/26 06:53:21;;;;;;;11.35;6.68;;;;;;;3.78;49.12;100222.13;5040589;28;20127;-79
2022/02/26 06:56:04;;;;;;;13.25;7.47;;;;;;;3.13;49.35;100153.53;5071651;28;20043;-81
2022/02/26 06:58:31;;;;;;;12.75;7.38;;;;;;;3.23;49.77;100191.50;5074744;28;20049;-80
2022/02/26 07:00:59;;;;;;;12.20;6.82;;;;;;;3.24;50.46;100218.97;5079764;28;20056;-80
2022/02/26 07:03:28;;;;;;;11.50;6.07;;;;;;;3.13;50.19;100233.25;5076497;28;20214;-79
2022/02/26 07:06:13;;;;;;;13.60;7.40;;;;;;;3.12;50.82;100245.22;5056050;28;20052;-79
2022/02/26 07:08:40;;;;;;;16.20;7.32;;;;;;;3.04;50.97;100261.28;5075078;28;20041;-79
2022/02/26 07:11:05;;;;;;;14.93;7.72;;;;;;;2.63;51.08;100193.28;5066315;28;20047;-79
2022/02/26 07:13:33;;;;;;;13.18;7.50;;;;;;;3.03;51.87;100241.53;5048459;28;20042;-80
2022/02/26 07:16:00;;;;;;;19.63;7.35;;;;;;;3.09;51.93;100232.28;5056821;28;20043;-80
2022/02/26 07:18:28;;;;;;;16.58;7.60;;;;;;;2.82;52.04;100168.09;5039491;28;20475;-80
2022/02/26 07:20:58;;;;;;;14.98;7.70;;;;;;;3.41;52.01;100245.19;5072299;28;20563;-80
2022/02/26 07:23:30;;;;;;;13.27;7.00;;;;;;;3.60;52.38;100266.25;5023936;28;20072;-80
2022/02/26 07:26:55;;;;;;;11.13;6.97;;;;;;;3.56;52.04;100237.00;5066573;28;20028;-81
2022/02/26 07:29:26;;;;;;;17.63;7.65;;;;;;;3.66;52.08;100252.69;5034550;28;20058;-79
2022/02/26 07:31:57;;;;;;;15.55;7.47;;;;;;;3.74;51.73;100267.53;5063045;28;20234;-78
2022/02/26 07:34:33;;;;;;;15.25;7.47;;;;;;;3.79;51.79;100275.34;5051739;28;20035;-82
2022/02/26 07:37:09;;;;;;;14.75;7.72;;;;;;;3.80;51.86;100273.63;5053478;28;21373;-77
2022/02/26 07:39:45;;;;;;;16.63;8.15;;;;;;;3.30;51.89;100197.72;5086539;28;20067;-80
2022/02/26 07:42:11;;;;;;;17.77;8.15;;;;;;;3.24;51.13;100205.25;5070170;28;20071;-78
2022/02/26 07:44:49;;;;;;;17.40;9.32;;;;;;;2.83;52.37;100155.31;5084394;28;20040;-81
2022/02/26 07:47:23;;;;;;;16.00;9.05;;;;;;;3.64;52.61;100286.09;5090883;28;20086;-81
2022/02/26 07:49:49;;;;;;;16.77;8.55;;;;;;;3.72;52.64;100288.88;5073386;28;20201;-78
2022/02/26 07:52:15;;;;;;;17.45;9.02;;;;;;;3.53;52.41;100274.66;5068182;28;20039;-79
2022/02/26 07:54:45;;;;;;;15.18;8.15;;;;;;;3.30;52.49;100237.16;5042026;28;20064;-82
2022/02/26 07:57:57;;;;;;;18.13;10.10;;;;;;;3.09;52.71;100216.84;5056839;28;20043;-82
2022/02/26 08:04:34;;;;;;;17.30;7.78;;;;;;;2.80;52.74;100169.75;5090463;28;20027;-81
2022/02/26 08:07:12;;;;;;;16.23;9.45;;;;;;;3.20;53.04;100263.44;5076081;28;20116;-79
2022/02/26 08:09:44;;;;;;;18.73;9.60;;;;;;;3.29;53.05;100281.72;5055050;28;20040;-81
2022/02/26 08:12:28;;;;;;;17.30;8.98;;;;;;;3.61;53.29;100315.22;5073466;28;20116;-82
2022/02/26 08:15:07;;;;;;;24.75;8.10;;;;;;;3.18;53.65;100216.25;5065491;28;20191;-81
2022/02/26 08:17:33;;;;;;;18.25;8.95;;;;;;;3.47;53.00;100250.50;5060985;28;20193;-81
2022/02/26 08:20:11;;;;;;;19.20;8.75;;;;;;;3.73;53.18;100265.78;5079890;28;20044;-83
2022/02/26 08:22:40;;;;;;;18.15;7.78;;;;;;;3.76;53.09;100267.56;5041567;28;20158;-81
2022/02/26 08:25:08;;;;;;;17.52;8.20;;;;;;;3.95;52.95;100292.09;5060425;28;20108;-81
2022/02/26 08:27:38;;;;;;;15.07;8.45;;;;;;;4.15;53.00;100325.22;5060058;28;20036;-80
2022/02/26 08:30:08;;;;;;;13.07;7.88;;;;;;;3.98;52.96;100280.97;5060874;28;20064;-81
2022/02/26 08:32:37;;;;;;;13.63;7.63;;;;;;;3.89;52.68;100254.16;5043446;28;20040;-79
2022/02/26 08:35:08;;;;;;;17.40;8.07;;;;;;;4.10;52.59;100278.69;5060353;28;20043;-82
2022/02/26 08:37:41;;;;;;;13.32;8.38;;;;;;;3.70;52.75;100218.47;5030036;28;20048;-80
2022/02/26 08:40:10;;;;;;;13.90;7.57;;;;;;;4.44;52.86;100318.19;5080804;28;20032;-79
2022/02/26 08:42:43;;;;;;;18.50;7.22;;;;;;;4.37;52.61;100313.72;5084256;28;20469;-80
2022/02/26 08:45:32;;;;;;;14.70;8.20;;;;;;;3.99;52.72;100260.41;5079752;28;20043;-80
2022/02/26 08:48:07;;;;;;;15.25;8.00;;;;;;;3.80;52.09;100220.47;5077107;28;20036;-79
2022/02/26 08:50:43;;;;;;;17.30;9.02;;;;;;;4.02;52.96;100263.06;5044549;28;20051;-80
2022/02/26 08:53:21;;;;;;;16.15;8.15;;;;;;;4.56;52.46;100340.81;5048457;28;20238;-81
2022/02/26 08:55:57;;;;;;;17.13;9.13;;;;;;;4.22;52.43;100247.22;5041894;28;20402;-82
2022/02/26 08:58:29;;;;;;;21.98;8.98;;;;;;;4.50;52.60;100279.69;5057392;28;20036;-80
2022/02/26 09:00:57;;;;;;;13.95;8.40;;;;;;;4.39;52.25;100263.09;5075223;28;20056;-79
2022/02/26 09:03:26;;;;;;;14.30;8.38;;;;;;;4.88;52.23;100322.66;5074789;28;20093;-80
2022/02/26 09:06:04;;;;;;;21.33;8.35;;;;;;;4.71;52.26;100257.81;5057957;28;20527;-79
2022/02/26 09:08:35;;;;;;;16.77;8.60;;;;;;;4.79;51.83;100245.94;5058244;28;20040;-78
2022/02/26 09:11:09;;;;;;;;;;;;;;;5.39;51.50;100316.03;5024367;28;20065;-79
2022/02/26 09:13:38;;;;;;;13.10;7.30;;;;;;;5.13;51.50;100276.75;5060700;28;20019;-82
2022/02/26 09:16:05;;;;;;;14.52;8.38;;;;;;;5.19;51.09;100270.84;5057488;28;20033;-80
2022/02/26 09:19:12;;;;;;;14.90;8.00;;;;;;;5.45;51.77;100327.28;5054583;28;20094;-80
2022/02/26 09:21:48;;;;;;;14.48;7.80;;;;;;;4.98;51.77;100257.53;5083876;28;20188;-81
2022/02/26 09:24:34;;;;;;;15.27;8.25;;;;;;;4.75;51.64;100218.34;5080907;28;20036;-81
2022/02/26 09:27:00;;;;;;;14.23;7.25;;;;;;;5.51;51.95;100324.84;5082421;28;20044;-81
2022/02/26 09:29:26;;;;;;;14.00;8.07;;;;;;;5.33;51.38;100286.59;5069125;28;20033;-82
2022/02/26 09:32:11;;;;;;;15.25;8.15;;;;;;;5.55;51.18;100326.66;5064038;28;20051;-79
2022/02/26 09:34:55;;;;;;;14.75;8.35;;;;;;;5.47;51.66;100308.44;5082090;28;20097;-81
2022/02/26 09:37:21;;;;;;;15.32;7.57;;;;;;;5.58;51.15;100329.28;5057275;28;20040;-80
2022/02/26 09:39:47;;;;;;;14.38;7.80;;;;;;;5.66;51.56;100332.03;5061464;28;20021;-80
2022/02/26 09:42:14;;;;;;;14.43;8.18;;;;;;;5.72;51.29;100345.91;5043854;28;20104;-81
2022/02/26 09:44:40;;;;;;;14.88;7.68;;;;;;;5.50;50.92;100315.34;5051845;28;20044;-81
2022/02/26 09:47:06;;;;;;;12.90;7.60;;;;;;;5.55;51.46;100334.38;5058127;28;20042;-80
2022/02/26 09:49:33;;;;;;;14.93;7.60;;;;;;;5.45;50.99;100320.44;5059068;28;20123;-85
2022/02/26 09:51:59;;;;;;;14.50;8.27;;;;;;;5.60;51.87;100334.47;5077550;28;20044;-80
2022/02/26 09:54:25;;;;;;;18.52;7.65;;;;;;;5.72;51.83;100345.91;5059610;28;20114;-82
2022/02/26 09:56:52;;;;;;;17.50;8.40;;;;;;;5.81;51.10;100323.72;5043398;28;20079;-81
2022/02/26 09:59:19;;;;;;;14.40;7.25;;;;;;;5.59;50.79;100279.41;5067798;28;20137;-83
2022/02/26 10:02:00;;;;;;;17.67;8.30;;;;;;;5.95;50.95;100345.50;5055432;28;20052;-84
2022/02/26 10:04:28;;;;;;;17.10;8.47;;;;;;;5.76;50.98;100307.25;5063475;28;20079;-83
2022/02/26 10:07:17;;;;;;;16.67;8.88;;;;;;;6.01;50.97;100347.34;5054266;28;20049;-83
2022/02/26 10:16:14;;;;;;;;;;;;;;;;;;;;;
2022/02/26 10:19:01;;;;;;;15.25;7.60;;;;;;;6.15;49.43;100351.06;5016137;28;20081;-83
2022/02/26 10:21:41;;;;;;;15.80;8.05;;;;;;;5.79;50.66;100315.91;5061490;28;20099;-79
2022/02/26 10:24:45;;;;;;;14.73;7.93;;;;;;;5.63;50.58;100298.41;5061698;28;20041;-80
2022/02/26 10:28:26;;;;;;;12.32;6.95;;;;;;;5.26;50.08;100234.00;5083480;28;20062;-81
2022/02/26 10:31:22;;;;;;;17.23;6.97;;;;;;;5.24;50.56;100253.75;5032191;28;20063;-84
2022/02/26 10:33:55;;;;;;;12.70;6.55;;;;;;;5.88;50.51;100364.28;5052705;28;20045;-81
2022/02/26 10:36:23;;;;;;;11.70;6.53;;;;;;;5.68;50.41;100322.59;5081970;28;20059;-83
2022/02/26 10:38:49;;;;;;;13.88;6.82;;;;;;;5.80;50.88;100361.56;5065740;28;20047;-82
2022/02/26 10:41:24;;;;;;;11.50;6.40;;;;;;;5.42;50.63;100310.91;5048915;28;20493;-82
2022/02/26 10:43:55;;;;;;;11.32;5.90;;;;;;;5.23;51.02;100294.19;5068358;28;20028;-83
2022/02/26 10:46:33;;;;;;;10.80;6.10;;;;;;;5.75;50.87;100380.41;5086956;28;20041;-83
2022/02/26 10:49:10;;;;;;;12.20;6.03;;;;;;;5.43;50.84;100317.78;5096189;28;20064;-83
2022/02/26 10:51:39;;;;;;;10.30;5.40;;;;;;;5.57;50.70;100325.81;5077663;28;20091;-82
2022/02/26 10:54:12;;;;;;;7.53;4.70;;;;;;;5.14;50.78;100268.19;5073787;28;20016;-84
2022/02/26 11:00:15;;;;;;;8.65;4.60;;;;;;;5.60;50.82;100384.41;5058586;28;20663;-84
2022/02/26 11:02:43;;;;;;;8.20;4.57;;;;;;;5.62;50.56;100384.44;5070221;28;20044;-83
2022/02/26 11:05:09;;;;;;;8.98;4.50;;;;;;;5.80;51.09;100391.69;5055787;28;20036;-81
2022/02/26 11:07:39;;;;;;;6.50;4.20;;;;;;;5.86;51.04;100371.13;5055948;28;20113;-83
2022/02/26 11:10:05;;;;;;;8.07;4.05;;;;;;;5.56;50.70;100318.06;5058526;28;20063;-84
2022/02/26 11:12:35;;;;;;;8.25;4.55;;;;;;;5.98;50.67;100384.31;5078145;28;20051;-82
2022/02/26 11:15:03;;;;;;;9.35;4.60;;;;;;;5.79;50.48;100340.88;5059967;28;20033;-87
2022/02/26 11:17:40;;;;;;;9.30;4.35;;;;;;;5.83;50.93;100360.78;5060244;28;20044;-84
2022/02/26 11:20:14;;;;;;;6.75;4.18;;;;;;;6.07;50.48;100398.28;5077538;28;20105;-85
2022/02/26 11:22:45;;;;;;;9.32;4.00;;;;;;;5.69;50.37;100335.53;5060502;28;20068;-85
2022/02/26 11:25:15;;;;;;;12.30;4.80;;;;;;;5.71;50.27;100349.34;5065825;28;20048;-82
2022/02/26 11:27:42;;;;;;;8.20;4.70;;;;;;;5.55;50.18;100330.09;5065990;28;20052;-85
2022/02/26 11:30:12;;;;;;;8.82;5.90;;;;;;;5.83;50.62;100382.28;5063422;28;20509;-84
2022/02/26 11:33:45;;;;;;;10.73;5.88;;;;;;;5.97;50.33;100398.06;5078370;28;20058;-84
2022/02/26 11:36:23;;;;;;;18.27;5.47;;;;;;;5.62;50.14;100328.53;5060141;28;20066;-86
2022/02/26 11:38:57;;;;;;;10.43;4.95;;;;;;;5.65;49.97;100338.03;5066469;28;20051;-85
2022/02/26 11:41:31;;;;;;;10.98;5.03;;;;;;;5.77;50.26;100369.25;5052571;28;20455;-86
2022/02/26 11:44:08;;;;;;;10.43;4.60;;;;;;;5.82;50.57;100400.34;5085244;28;20044;-87
2022/02/26 11:46:44;;;;;;;9.10;5.03;;;;;;;5.50;50.63;100349.81;5293716;22;20075;-85
2022/02/26 11:49:17;;;;;;;7.03;4.50;;;;;;;5.82;50.16;100397.78;5056392;28;20193;-83
2022/02/26 11:51:57;;;;;;;8.77;4.18;;;;;;;5.16;50.36;100281.13;5066203;28;20522;-84
2022/02/26 11:54:23;;;;;;;10.13;4.38;;;;;;;5.52;50.17;100313.69;5073325;28;20035;-85
2022/02/26 11:56:58;;;;;;;9.02;5.20;;;;;;;5.52;49.26;100293.88;5064077;28;20136;-83
2022/02/26 11:59:36;;;;;;;14.32;5.53;;;;;;;6.09;50.25;100376.78;5055766;28;20472;-83
2022/02/26 12:02:16;;;;;;;10.73;4.85;;;;;;;5.74;49.85;100330.44;5075069;28;20036;-85
2022/02/26 12:04:59;;;;;;;15.43;4.95;;;;;;;6.07;49.77;100387.94;5080621;28;20050;-83
2022/02/26 12:07:39;;;;;;;9.02;4.32;;;;;;;5.97;49.81;100392.00;5047426;28;20036;-85
2022/02/26 12:10:10;;;;;;;11.45;4.50;;;;;;;5.65;49.78;100359.53;5070607;28;20087;-83
2022/02/26 12:12:47;;;;;;;7.10;4.00;;;;;;;5.67;50.12;100394.00;5045631;28;20040;-85
2022/02/26 12:15:21;;;;;;;7.05;4.13;;;;;;;5.55;50.11;100396.34;5066248;28;20134;-83